Date,TemperatureHighF,TemperatureAvgF,TemperatureLowF,DewpointHighF,DewpointAvgF,DewpointLowF,HumidityHigh,HumidityAvg,HumidityLow,PressureMaxIn,PressureMinIn,WindSpeedMaxMPH,WindSpeedAvgMPH,GustSpeedMaxMPH,PrecipitationSumIn
2013-3-1,69,66,64,65,62,60,88,86,81,29.88,29.63,12,5,39,4.17
2013-3-2,67,65,63,63,61,59,90,88,86,29.99,29.88,10,4,23,1.63
2013-3-3,80,72,66,67,64,62,89,76,63,29.99,29.93,6,2,18,0.06
2013-3-4,82,74,68,66,63,60,79,69,54,30.03,29.94,8,1,17,0.00
2013-3-5,83,75,68,65,63,60,79,66,50,30.01,29.95,10,1,20,0.00
2013-3-6,85,76,70,67,64,62,78,66,50,29.99,29.90,8,1,16,0.00
2013-3-7,87,75,65,67,62,58,82,65,51,29.99,29.88,8,2,14,0.00
2013-3-8,83,75,65,67,63,58,80,67,52,30.04,29.95,6,1,17,0.00
2013-3-9,83,75,70,67,64,62,79,68,52,30.02,29.92,7,1,14,0.00
2013-3-10,87,75,65,67,63,59,82,67,50,29.98,29.88,7,1,13,0.00
2013-3-11,85,75,66,68,64,60,82,70,55,30.00,29.91,5,0,12,0.00
2013-3-12,85,75,67,67,63,60,82,67,50,30.00,29.88,6,1,12,0.00
2013-3-13,88,75,64,67,62,57,82,66,46,29.89,29.69,9,1,16,0.00
2013-3-14,87,75,66,69,64,59,81,68,46,29.80,29.65,8,1,13,0.00
2013-3-15,76,73,70,69,67,65,85,81,78,29.89,29.78,7,2,13,0.42
2013-3-16,91,76,67,71,67,62,88,74,52,29.86,29.62,5,0,10,0.00
2013-3-17,80,74,68,66,59,53,82,61,43,29.93,29.61,12,3,21,0.00
2013-3-18,77,69,60,60,56,52,76,64,50,30.05,29.92,8,2,15,0.02
2013-3-19,80,69,58,62,57,51,81,66,49,30.13,30.03,6,0,10,0.00
2013-3-20,81,71,60,64,59,53,82,68,54,30.14,30.00,6,1,17,0.00
2013-3-21,87,74,63,66,61,55,77,64,42,30.03,29.79,7,2,14,0.00
2013-3-22,92,80,70,69,65,61,74,61,46,29.83,29.76,7,2,14,0.00
2013-3-23,95,82,74,69,65,61,71,57,41,29.88,29.76,5,1,13,0.00
2013-3-24,95,81,70,72,67,60,84,64,33,29.87,29.70,5,0,11,0.00
2013-3-25,89,79,71,71,65,57,76,63,50,29.95,29.80,8,1,16,0.00
2013-3-26,89,78,70,72,68,64,84,71,54,29.96,29.84,7,1,12,0.00
2013-3-27,94,80,68,73,67,61,82,67,45,29.95,29.84,6,1,19,0.00
2013-3-28,95,81,70,70,66,63,79,62,40,29.89,29.74,6,1,15,0.08
2013-3-29,78,72,66,68,57,51,80,61,50,29.95,29.77,9,2,17,0.08
2013-3-30,80,69,59,60,57,51,78,65,50,29.94,29.73,5,0,9,0.00
2013-3-31,80,71,65,60,58,56,78,65,44,29.85,29.64,6,0,13,0.00